createdAt,value
2022-09-07T04:11:34.999Z,92.85
2022-09-07T04:12:35.143Z,92.65
2022-09-07T04:13:35.158Z,93.05
2022-09-07T04:14:37.180Z,93.60
2022-09-07T04:15:36.132Z,93.26
2022-09-07T04:16:36.258Z,93.76
2022-09-07T04:17:36.050Z,94.11
2022-09-07T04:18:35.958Z,94.46
2022-09-07T04:19:35.848Z,96.12
2022-09-07T04:20:35.882Z,96.53
2022-09-07T04:21:35.884Z,96.83
2022-09-07T04:22:35.865Z,97.14
2022-09-07T04:23:35.806Z,97.28
2022-09-07T04:24:35.820Z,97.08
2022-09-07T04:25:35.815Z,98.39
2022-09-07T04:26:35.809Z,98.90
2022-09-07T04:27:35.797Z,99.51
2022-09-07T04:28:35.817Z,99.35
2022-09-07T04:29:35.762Z,99.66
2022-09-07T04:30:35.799Z,99.51
2022-09-07T04:31:35.780Z,98.95
2022-09-07T04:32:35.779Z,99.35
2022-09-07T04:33:35.822Z,99.55
2022-09-07T04:34:35.786Z,99.51
2022-09-07T04:35:35.944Z,99.25
2022-09-07T04:36:35.719Z,98.70
2022-09-07T04:37:35.831Z,98.19
2022-09-07T04:38:35.692Z,97.79
2022-09-07T04:39:35.679Z,97.99
2022-09-07T04:40:35.646Z,97.99
2022-09-07T04:41:35.632Z,98.70
2022-09-07T04:42:35.636Z,99.30
2022-09-07T04:43:35.667Z,99.41
2022-09-07T04:44:36.581Z,99.30
2022-09-07T05:03:56.870Z,99.26
2022-09-07T05:05:02.015Z,99.26
2022-09-07T05:05:56.889Z,99.41
2022-09-07T05:06:56.921Z,99.96
2022-09-07T05:07:56.793Z,99.99
2022-09-07T05:08:56.752Z,99.99
2022-09-07T05:09:56.674Z,99.99
2022-09-07T05:10:56.645Z,99.99
2022-09-07T05:11:56.657Z,99.99
2022-09-07T05:12:56.637Z,99.99
2022-09-07T05:13:56.643Z,99.99
2022-09-07T05:14:56.661Z,99.99
2022-09-07T05:15:56.630Z,99.99
2022-09-07T05:16:56.626Z,99.26
2022-09-07T05:17:56.598Z,99.26
2022-09-07T05:18:56.569Z,99.26
2022-09-07T05:19:56.600Z,99.77
2022-09-07T05:20:56.531Z,99.99
2022-09-07T05:21:56.535Z,99.99
2022-09-07T05:22:56.510Z,99.99
2022-09-07T05:23:56.525Z,99.99
2022-09-07T05:24:56.519Z,99.99
2022-09-07T05:25:56.482Z,99.99
2022-09-07T05:26:56.511Z,99.99
2022-09-07T05:27:56.458Z,99.99
2022-09-07T05:30:04.568Z,99.99
2022-09-07T05:31:27.143Z,99.99
2022-09-07T05:31:57.426Z,99.99
2022-09-07T05:32:56.396Z,99.99
2022-09-07T05:34:56.376Z,99.99
2022-09-07T05:35:56.416Z,99.62
2022-09-07T05:36:56.381Z,98.81
2022-09-07T05:37:57.489Z,97.80
2022-09-07T05:38:57.653Z,97.60
2022-09-07T05:39:57.530Z,97.19
2022-09-07T05:40:57.508Z,97.05
2022-09-07T05:41:57.444Z,97.96
2022-09-07T05:42:57.453Z,97.71
2022-09-07T05:44:57.437Z,96.55
2022-09-07T05:45:57.507Z,95.74
2022-09-07T05:46:57.398Z,94.63
2022-09-07T05:47:57.373Z,95.54
2022-09-07T05:48:57.365Z,95.54
2022-09-07T05:49:57.392Z,95.43
2022-09-07T05:50:57.414Z,95.34
2022-09-07T05:51:57.339Z,95.98
2022-09-07T05:52:57.307Z,96.25
2022-09-07T05:53:57.335Z,96.34
2022-09-07T05:55:13.065Z,95.79
2022-09-07T05:55:57.279Z,95.19
2022-09-07T05:56:57.314Z,94.13
2022-09-07T05:57:57.273Z,94.24
2022-09-07T05:58:57.247Z,93.54
2022-09-07T05:59:57.275Z,91.04
2022-09-07T06:00:57.220Z,89.28
2022-09-07T06:01:57.317Z,88.54
2022-09-07T06:02:57.386Z,87.19
2022-09-07T06:03:57.252Z,86.34
2022-09-07T06:04:57.213Z,84.89
2022-09-07T06:05:57.200Z,83.75
2022-09-07T06:07:58.156Z,83.89
2022-09-07T06:08:57.146Z,84.13
2022-09-07T06:10:57.134Z,86.43
2022-09-07T06:11:58.138Z,86.52
2022-09-07T06:12:57.096Z,85.92
2022-09-07T06:13:57.063Z,86.87
2022-09-07T06:14:57.085Z,88.96
2022-09-07T06:15:57.076Z,89.67
2022-09-07T06:16:57.119Z,89.28
2022-09-07T06:17:57.056Z,88.68
2022-09-07T06:18:57.029Z,87.83
2022-09-07T06:19:57.058Z,88.34
2022-09-07T06:20:57.001Z,88.39
2022-09-07T06:21:57.008Z,88.03
2022-09-07T06:22:57.029Z,88.09
2022-09-07T06:23:56.961Z,87.49
2022-09-07T06:24:56.960Z,87.04
2022-09-07T06:25:56.954Z,86.14
2022-09-07T06:26:56.964Z,85.10
2022-09-07T06:27:56.968Z,84.55
2022-09-07T06:28:58.021Z,83.95
2022-09-07T06:29:56.906Z,83.41
2022-09-07T06:30:56.909Z,81.90
2022-09-07T06:32:56.879Z,82.00
2022-09-07T06:33:56.915Z,83.21
2022-09-07T06:34:56.857Z,83.65
2022-09-07T06:35:56.874Z,84.95
2022-09-07T06:36:56.876Z,84.89
2022-09-07T06:37:56.810Z,85.66
2022-09-07T06:38:56.812Z,84.51
2022-09-07T06:39:56.870Z,83.85
2022-09-07T06:41:58.949Z,84.21
2022-09-07T06:42:56.753Z,83.11
2022-09-07T06:43:56.747Z,83.51
2022-09-07T06:44:56.749Z,85.05
2022-09-07T06:45:56.807Z,85.41
2022-09-07T06:47:04.456Z,85.31
2022-09-07T06:47:58.720Z,84.51
2022-09-07T06:48:56.679Z,85.56
2022-09-07T06:49:56.758Z,85.25
2022-09-07T06:50:56.667Z,85.16
2022-09-07T06:51:56.673Z,85.50
2022-09-07T06:55:56.615Z,85.46
2022-09-07T06:56:56.614Z,83.67
2022-09-07T06:57:56.644Z,81.18
2022-09-07T06:58:56.583Z,80.48
2022-09-07T06:59:56.551Z,80.88
2022-09-07T07:00:56.610Z,77.39
2022-09-07T07:01:56.531Z,76.06
2022-09-07T07:02:56.575Z,72.99
2022-09-07T07:03:56.546Z,70.86
2022-09-07T07:04:56.517Z,68.86
2022-09-07T07:05:56.488Z,68.00
2022-09-07T07:06:56.495Z,65.68
2022-09-07T07:07:56.494Z,66.51
2022-09-07T07:08:56.443Z,67.40
2022-09-07T07:09:56.436Z,67.80
2022-09-07T07:10:56.415Z,69.59
2022-09-07T07:11:56.437Z,71.62
2022-09-07T07:12:56.435Z,69.69
2022-09-07T07:13:56.538Z,70.62
2022-09-07T07:14:56.368Z,71.92
2022-09-07T07:15:56.400Z,70.22
2022-09-07T07:16:56.393Z,70.06
2022-09-07T07:18:05.140Z,66.91
2022-09-07T07:18:57.354Z,69.92
2022-09-07T07:19:56.314Z,70.45
2022-09-07T07:20:56.308Z,70.52
2022-09-07T07:22:57.300Z,66.87
2022-09-07T07:23:56.261Z,67.10
2022-09-07T07:24:56.274Z,62.76
2022-09-07T07:25:56.241Z,62.86
2022-09-07T07:26:56.239Z,62.90
2022-09-07T07:27:56.894Z,61.78
2022-09-07T07:29:57.243Z,58.25
2022-09-07T07:30:56.208Z,58.39
2022-09-07T07:31:56.180Z,55.78
2022-09-07T07:32:56.228Z,55.81
2022-09-07T07:33:56.254Z,55.81
2022-09-07T07:34:56.196Z,57.64
2022-09-07T07:35:56.200Z,54.49
2022-09-07T07:36:56.343Z,52.39
2022-09-07T07:41:58.624Z,51.52
2022-09-07T07:42:56.098Z,54.17
2022-09-07T07:43:56.036Z,53.35
2022-09-07T07:45:56.099Z,53.63
2022-09-07T07:46:56.019Z,55.77
2022-09-07T07:47:55.989Z,56.07
2022-09-07T07:48:55.997Z,55.58
2022-09-07T07:50:30.856Z,55.08
2022-09-07T07:50:56.966Z,54.98
2022-09-07T07:53:56.234Z,54.98
2022-09-07T07:54:55.916Z,54.64
2022-09-07T07:55:55.928Z,54.64
2022-09-07T07:56:55.910Z,54.66
2022-09-07T07:57:55.898Z,54.06
2022-09-07T07:58:55.922Z,55.45
2022-09-07T07:59:55.855Z,55.28
2022-09-07T08:00:56.666Z,55.33
2022-09-07T08:01:55.927Z,54.73
2022-09-07T08:02:55.873Z,53.94
2022-09-07T08:03:55.833Z,54.39
2022-09-07T08:04:55.804Z,55.05
2022-09-07T08:05:55.786Z,56.57
2022-09-07T08:06:55.781Z,55.41
2022-09-07T08:07:55.804Z,58.02
2022-09-07T08:08:55.781Z,63.40
2022-09-07T08:09:55.788Z,62.21
2022-09-07T08:10:55.770Z,56.97
2022-09-07T08:11:55.742Z,55.78
2022-09-07T08:12:55.748Z,56.92
2022-09-07T08:13:55.744Z,57.51
2022-09-07T08:14:55.727Z,55.53
2022-09-07T08:15:55.715Z,60.05
2022-09-07T08:16:55.676Z,63.19
2022-09-07T08:17:55.681Z,65.98
2022-09-07T08:18:55.771Z,66.31
2022-09-07T08:19:55.659Z,64.78
2022-09-07T08:20:56.064Z,67.47
2022-09-07T08:21:55.635Z,67.07
2022-09-07T08:22:55.594Z,69.62
2022-09-07T08:23:56.651Z,67.20
2022-09-07T08:24:55.588Z,68.46
2022-09-07T08:25:55.568Z,67.63
2022-09-07T08:26:55.592Z,68.36
2022-09-07T08:27:55.542Z,67.83
2022-09-07T08:28:55.535Z,69.79
2022-09-07T08:29:55.556Z,68.79
2022-09-07T08:30:55.532Z,68.59
2022-09-07T08:31:55.525Z,69.16
2022-09-07T08:32:55.675Z,69.79
2022-09-07T08:33:55.575Z,70.19
2022-09-07T08:34:55.483Z,70.26
2022-09-07T08:35:55.466Z,69.73
2022-09-07T08:36:55.470Z,69.86
2022-09-07T08:37:55.447Z,68.49
2022-09-07T08:38:55.442Z,69.43
2022-09-07T08:39:55.486Z,68.23
2022-09-07T08:40:55.412Z,69.02
2022-09-07T08:41:55.419Z,69.53
2022-09-07T08:42:55.402Z,72.62
2022-09-07T08:43:55.403Z,68.46
2022-09-07T08:44:55.377Z,70.03
2022-09-07T08:45:55.344Z,69.76
2022-09-07T08:46:55.406Z,67.60
2022-09-07T08:47:55.304Z,68.33
2022-09-07T08:48:55.320Z,67.60
2022-09-07T08:49:55.304Z,67.33
2022-09-07T08:50:55.280Z,67.33
2022-09-07T08:51:55.297Z,67.93
2022-09-07T08:52:55.254Z,68.23
2022-09-07T08:53:55.261Z,66.83
2022-09-07T08:54:55.257Z,67.33
2022-09-07T08:55:55.223Z,66.30
2022-09-07T08:57:55.196Z,64.67
2022-09-07T08:58:55.217Z,66.24
2022-09-07T08:59:55.194Z,65.26
2022-09-07T09:01:30.638Z,67.57
2022-09-07T09:05:55.232Z,66.70
2022-09-07T09:06:55.179Z,67.60
2022-09-07T09:07:55.098Z,65.34
2022-09-07T09:08:55.055Z,64.24
2022-09-07T09:09:55.083Z,64.01
2022-09-07T09:10:55.030Z,65.70
2022-09-07T09:11:55.208Z,66.66
2022-09-07T09:12:55.037Z,66.30
2022-09-07T09:13:54.995Z,64.83
2022-09-07T09:14:55.026Z,67.22
2022-09-07T09:15:54.996Z,67.02
2022-09-07T09:16:55.011Z,66.36
2022-09-07T09:17:54.985Z,67.43
2022-09-07T09:18:54.948Z,65.03
2022-09-07T09:19:54.997Z,65.00
2022-09-07T09:20:54.924Z,64.97
2022-09-07T09:21:54.937Z,64.90
2022-09-07T09:22:54.935Z,64.64
2022-09-07T09:23:54.874Z,64.74
2022-09-07T09:24:54.894Z,64.21
2022-09-07T09:25:54.870Z,65.03
2022-09-07T09:26:54.878Z,66.03
2022-09-07T09:27:54.823Z,66.09
2022-09-07T09:28:54.851Z,66.17
2022-09-07T09:29:54.824Z,65.14
2022-09-07T09:30:54.904Z,66.03
2022-09-07T09:31:54.805Z,66.36
2022-09-07T09:32:54.777Z,66.30
2022-09-07T09:33:54.774Z,65.97
2022-09-07T09:34:54.769Z,64.97
2022-09-07T09:35:54.759Z,65.70
2022-09-07T09:36:54.739Z,64.78
2022-09-07T09:37:55.728Z,63.25
2022-09-07T09:38:54.692Z,62.45
2022-09-07T09:39:56.209Z,64.54
2022-09-07T09:40:54.761Z,65.07
2022-09-07T09:41:54.712Z,65.20
2022-09-07T09:42:54.669Z,64.77
2022-09-07T09:43:54.668Z,66.63
2022-09-07T09:44:54.622Z,65.11
2022-09-07T09:47:54.895Z,64.51
2022-09-07T09:48:54.605Z,65.53
2022-09-07T09:49:54.612Z,64.78
2022-09-07T09:52:54.546Z,63.91
2022-09-07T09:53:54.556Z,64.97
2022-09-07T09:54:55.840Z,62.15
2022-09-07T09:55:54.503Z,63.05
2022-09-07T09:56:54.507Z,61.20
2022-09-07T09:59:58.367Z,59.15
2022-09-07T10:03:58.187Z,60.19
2022-09-07T10:04:54.724Z,58.60
2022-09-07T10:05:54.412Z,58.26
2022-09-07T10:06:54.417Z,58.03
2022-09-07T10:07:54.371Z,57.24
2022-09-07T10:08:54.366Z,58.13
2022-09-07T10:09:54.352Z,60.91
2022-09-07T10:10:54.326Z,58.10
2022-09-07T10:12:09.570Z,59.82
2022-09-07T10:12:56.346Z,58.86
2022-09-07T10:13:54.306Z,59.94
2022-09-07T10:14:54.274Z,60.77
2022-09-07T10:15:54.366Z,58.86
2022-09-07T10:16:55.677Z,59.07
2022-09-07T10:17:54.257Z,56.85
2022-09-07T10:18:54.244Z,58.83
2022-09-07T10:19:54.245Z,60.47
2022-09-07T10:20:54.256Z,60.60
2022-09-07T10:21:54.277Z,58.13
2022-09-07T10:22:54.201Z,57.81
2022-09-07T10:23:54.193Z,58.43
2022-09-07T10:24:54.174Z,58.86
2022-09-07T10:25:54.195Z,60.71
2022-09-07T10:26:54.144Z,57.90
2022-09-07T10:27:54.159Z,58.45
2022-09-07T10:29:10.085Z,58.86
2022-09-07T10:29:56.127Z,58.60
2022-09-07T10:30:54.179Z,58.17
2022-09-07T10:31:54.083Z,59.21
2022-09-07T10:32:55.116Z,55.36
2022-09-07T10:34:54.077Z,53.60
2022-09-07T10:35:54.060Z,52.01
2022-09-07T10:36:54.057Z,53.82
2022-09-07T10:37:54.122Z,53.72
2022-09-07T10:38:54.024Z,55.32
2022-09-07T10:39:56.965Z,58.15
2022-09-07T10:40:55.005Z,55.19
2022-09-07T10:41:53.989Z,55.41
2022-09-07T10:43:54.982Z,58.77
2022-09-07T10:44:53.973Z,58.62
2022-09-07T10:45:53.989Z,58.48
2022-09-07T10:46:57.463Z,59.88
2022-09-07T10:47:54.975Z,61.53
2022-09-07T10:48:54.031Z,62.26
2022-09-07T10:50:53.974Z,61.93
2022-09-07T10:51:53.922Z,62.02
2022-09-07T10:52:53.991Z,63.48
2022-09-07T10:54:53.848Z,60.90
2022-09-07T10:55:54.014Z,63.98
2022-09-07T10:56:53.866Z,61.90
2022-09-07T10:57:54.046Z,60.87
2022-09-07T10:59:09.151Z,58.40
2022-09-07T11:00:11.325Z,57.86
2022-09-07T11:00:55.912Z,58.39
2022-09-07T11:01:53.864Z,60.40
2022-09-07T11:03:53.825Z,58.62
2022-09-07T11:04:53.802Z,58.27
2022-09-07T11:05:53.745Z,58.12
2022-09-07T11:06:53.716Z,56.06
2022-09-07T11:07:53.695Z,58.30
2022-09-07T11:09:54.909Z,58.33
2022-09-07T11:10:53.680Z,58.90
2022-09-07T11:12:01.461Z,58.50
2022-09-07T11:12:55.654Z,58.27
2022-09-07T11:14:12.163Z,56.19
2022-09-07T11:14:54.627Z,57.83
2022-09-07T11:15:53.653Z,58.43
2022-09-07T11:16:53.685Z,58.92
2022-09-07T11:17:53.618Z,58.90
2022-09-07T11:19:35.022Z,58.27
2022-09-07T11:19:53.601Z,58.17
2022-09-07T11:20:53.544Z,58.17
2022-09-07T11:21:56.846Z,58.37
2022-09-07T11:22:54.540Z,57.28
2022-09-07T11:23:53.535Z,58.45
2022-09-07T11:25:53.526Z,60.57
2022-09-07T11:26:53.505Z,60.05
2022-09-07T11:27:53.520Z,58.75
2022-09-07T11:29:53.485Z,60.25
2022-09-07T11:30:57.846Z,58.13
2022-09-07T11:31:54.464Z,58.50
2022-09-07T11:32:53.469Z,58.03
2022-09-07T11:34:54.493Z,58.40
2022-09-07T11:35:54.419Z,57.13
2022-09-07T11:36:53.403Z,56.97
2022-09-07T11:37:53.379Z,55.36
2022-09-07T11:38:53.367Z,54.59
2022-09-07T11:39:53.391Z,54.27
2022-09-07T11:40:53.373Z,54.49
2022-09-07T11:41:53.341Z,52.04
2022-09-07T11:42:53.366Z,54.17
2022-09-07T11:43:53.312Z,54.45
2022-09-07T11:44:53.327Z,54.47
2022-09-07T11:45:53.290Z,57.03
2022-09-07T11:46:53.309Z,54.72
2022-09-07T11:47:53.275Z,54.02
2022-09-07T11:48:53.277Z,54.57
2022-09-07T11:49:57.202Z,55.29
2022-09-07T11:50:54.256Z,56.76
2022-09-07T11:51:54.233Z,55.49
2022-09-07T11:52:54.206Z,55.74
2022-09-07T11:53:54.211Z,54.49
2022-09-07T11:54:53.194Z,54.00
2022-09-07T11:55:53.193Z,53.98
2022-09-07T11:56:53.185Z,54.53
2022-09-07T11:57:55.647Z,55.47
2022-09-07T11:58:54.159Z,54.15
2022-09-07T11:59:53.140Z,54.75
2022-09-07T12:00:53.146Z,54.15
2022-09-07T12:01:53.116Z,54.13
2022-09-07T12:02:59.997Z,54.57
2022-09-07T12:03:55.211Z,55.46
2022-09-07T12:04:56.388Z,54.00
2022-09-07T12:05:53.162Z,54.89
2022-09-07T12:06:53.093Z,53.20
2022-09-07T12:07:53.044Z,53.45
2022-09-07T12:08:53.043Z,54.13
2022-09-07T12:09:53.029Z,53.85
2022-09-07T12:10:53.071Z,53.63
2022-09-07T12:11:53.030Z,52.71
2022-09-07T12:12:52.993Z,53.01
2022-09-07T12:13:53.050Z,51.70
2022-09-07T12:14:52.996Z,50.06
2022-09-07T12:15:53.051Z,50.63
2022-09-07T12:16:53.024Z,51.20
2022-09-07T12:17:53.036Z,53.18
2022-09-07T12:18:52.960Z,52.61
2022-09-07T12:19:52.988Z,51.52
2022-09-07T12:20:52.939Z,50.81
2022-09-07T12:21:52.960Z,51.37
2022-09-07T12:22:52.959Z,50.95
2022-09-07T12:23:52.920Z,50.04
2022-09-07T12:24:53.024Z,50.12
2022-09-07T12:25:52.921Z,50.76
2022-09-07T12:26:52.867Z,51.37
2022-09-07T12:27:52.840Z,52.49
2022-09-07T12:28:52.844Z,51.32
2022-09-07T12:29:52.909Z,51.54
2022-09-07T12:30:52.848Z,51.60
2022-09-07T12:32:52.382Z,51.50
2022-09-07T12:32:56.142Z,52.51
2022-09-07T12:33:52.776Z,52.49
2022-09-07T12:34:52.788Z,53.43
2022-09-07T12:35:52.771Z,52.89
2022-09-07T12:36:52.766Z,54.21
2022-09-07T12:37:52.771Z,55.91
2022-09-07T12:38:52.718Z,55.65
2022-09-07T12:39:52.767Z,55.77
2022-09-07T12:40:52.718Z,55.85
2022-09-07T12:42:31.896Z,55.74
2022-09-07T12:42:54.486Z,55.74
2022-09-07T12:43:52.671Z,55.44
2022-09-07T12:44:52.630Z,55.15
2022-09-07T12:45:52.778Z,56.12
2022-09-07T12:46:52.618Z,55.12
2022-09-07T12:47:52.633Z,55.99
2022-09-07T12:48:52.626Z,55.79
2022-09-07T12:49:52.594Z,56.51
2022-09-07T12:50:52.736Z,56.84
2022-09-07T12:52:05.019Z,57.14
2022-09-07T12:52:54.603Z,56.12
2022-09-07T12:53:57.462Z,54.94
2022-09-07T12:55:16.307Z,54.69
2022-09-07T12:57:52.577Z,52.44
2022-09-07T12:58:52.589Z,52.73
2022-09-07T12:59:52.493Z,52.56
2022-09-07T13:00:52.512Z,53.48
2022-09-07T13:01:52.544Z,52.69
2022-09-07T13:02:52.579Z,54.17
2022-09-07T13:03:52.562Z,53.90
2022-09-07T13:04:52.850Z,54.79
2022-09-07T13:05:52.449Z,54.32
2022-09-07T13:07:07.858Z,54.13
2022-09-07T13:07:59.341Z,54.57
2022-09-07T13:08:52.425Z,53.30
2022-09-07T13:09:52.398Z,52.46
2022-09-07T13:10:52.352Z,50.07
2022-09-07T13:11:52.350Z,49.05
2022-09-07T13:12:53.803Z,47.35
2022-09-07T13:14:09.670Z,47.08
2022-09-07T13:14:54.327Z,50.16
2022-09-07T13:15:52.329Z,49.57
2022-09-07T13:17:52.289Z,49.69
2022-09-07T13:18:52.529Z,49.20
2022-09-07T13:19:52.276Z,50.71
2022-09-07T13:20:53.642Z,50.83
2022-09-07T13:21:52.249Z,52.44
2022-09-07T13:22:52.241Z,54.57
2022-09-07T13:23:53.186Z,55.57
2022-09-07T13:24:52.273Z,55.17
2022-09-07T13:25:52.209Z,55.76
2022-09-07T13:26:52.179Z,55.15
2022-09-07T13:27:52.176Z,55.76
2022-09-07T13:28:52.195Z,55.07
2022-09-07T13:29:52.170Z,55.59
2022-09-07T13:30:52.186Z,56.32
2022-09-07T13:31:52.935Z,56.41
2022-09-07T13:33:08.344Z,55.59
2022-09-07T13:33:53.144Z,55.72
2022-09-07T13:34:52.093Z,56.44
2022-09-07T13:35:52.093Z,56.04
2022-09-07T13:36:53.079Z,55.85
2022-09-07T13:37:52.072Z,55.55
2022-09-07T13:38:52.083Z,56.61
2022-09-07T13:39:52.104Z,57.04
2022-09-07T13:40:52.098Z,56.94
2022-09-07T13:41:52.046Z,56.14
2022-09-07T13:42:52.009Z,57.24
2022-09-07T13:43:52.055Z,56.84
2022-09-07T13:44:52.003Z,57.70
2022-09-07T13:45:52.023Z,57.31
2022-09-07T13:46:51.996Z,57.51
2022-09-07T13:47:51.957Z,57.48
2022-09-07T13:48:51.979Z,55.87
2022-09-07T13:49:55.699Z,56.04
2022-09-07T13:50:51.942Z,55.71
2022-09-07T13:51:51.944Z,54.96
2022-09-07T13:52:51.915Z,53.30
2022-09-07T13:53:51.898Z,51.30
2022-09-07T13:54:51.919Z,52.06
2022-09-07T13:55:51.899Z,50.16
2022-09-07T13:56:51.858Z,49.49
2022-09-07T13:57:51.885Z,50.12
2022-09-07T13:58:51.872Z,50.19
2022-09-07T13:59:51.879Z,50.88
2022-09-07T14:00:51.893Z,48.80
2022-09-07T14:01:51.945Z,49.40
2022-09-07T14:02:55.952Z,49.49
2022-09-07T14:03:51.799Z,49.60
2022-09-07T14:04:51.817Z,49.42
2022-09-07T14:05:52.781Z,50.09
2022-09-07T14:06:51.778Z,50.68
2022-09-07T14:07:51.741Z,51.75
2022-09-07T14:08:51.755Z,51.18
2022-09-07T14:09:51.712Z,50.90
2022-09-07T14:10:51.748Z,52.09
2022-09-07T14:11:51.708Z,51.20
2022-09-07T14:12:51.687Z,51.87
2022-09-07T14:13:51.677Z,49.79
2022-09-07T14:14:51.681Z,49.20
2022-09-07T14:15:51.673Z,49.22
2022-09-07T14:16:51.705Z,48.80
2022-09-07T14:17:51.636Z,49.52
2022-09-07T14:18:51.619Z,49.47
2022-09-07T14:19:51.619Z,50.16
2022-09-07T14:20:51.658Z,50.09
2022-09-07T14:21:51.584Z,51.35
2022-09-07T14:22:53.524Z,49.19
2022-09-07T14:23:52.592Z,50.58
2022-09-07T14:24:51.582Z,50.88
2022-09-07T14:26:52.561Z,49.77
2022-09-07T14:27:51.557Z,50.36
2022-09-07T14:28:51.523Z,49.40
2022-09-07T14:29:51.492Z,49.81
2022-09-07T14:30:51.601Z,50.78
2022-09-07T14:31:51.496Z,52.69
2022-09-07T14:32:52.469Z,53.21
2022-09-07T14:33:51.457Z,51.40
2022-09-07T14:34:51.456Z,52.69
2022-09-07T14:35:51.457Z,53.80
2022-09-07T14:36:51.457Z,53.63
2022-09-07T14:37:51.429Z,54.16
2022-09-07T14:39:06.736Z,55.35
2022-09-07T14:39:53.430Z,54.75
2022-09-07T14:40:51.699Z,55.05
2022-09-07T14:41:51.418Z,55.35
2022-09-07T14:42:51.366Z,54.55
2022-09-07T14:43:51.341Z,55.35
2022-09-07T14:44:51.342Z,54.03
2022-09-07T14:45:51.373Z,54.82
2022-09-07T14:46:56.384Z,55.52
2022-09-07T14:47:52.282Z,55.32
2022-09-07T14:48:51.295Z,56.21
2022-09-07T14:49:51.278Z,56.71
2022-09-07T14:51:10.989Z,58.40
2022-09-07T14:51:51.281Z,58.00
2022-09-07T14:53:51.223Z,61.98
2022-09-07T14:54:51.238Z,61.78
2022-09-07T14:55:51.228Z,58.77
2022-09-07T14:56:51.205Z,58.57
2022-09-07T14:57:51.208Z,58.92
2022-09-07T14:58:51.189Z,62.77
2022-09-07T14:59:51.158Z,61.80
2022-09-07T15:01:51.207Z,63.76
2022-09-07T15:02:51.160Z,62.77
2022-09-07T15:03:51.159Z,61.75
2022-09-07T15:04:51.105Z,61.75
2022-09-07T15:05:51.115Z,61.49
2022-09-07T15:07:06.342Z,61.79
2022-09-07T15:07:53.113Z,60.40
2022-09-07T15:08:51.090Z,57.32
2022-09-07T15:09:51.088Z,55.41
2022-09-07T15:11:51.055Z,55.41
2022-09-07T15:12:51.063Z,55.39
2022-09-07T15:13:52.061Z,55.49
2022-09-07T15:14:51.031Z,54.69
2022-09-07T15:15:51.008Z,54.69
2022-09-07T15:17:42.567Z,54.69
2022-09-07T15:17:51.082Z,54.42
2022-09-07T15:18:51.000Z,54.52
2022-09-07T15:19:50.983Z,55.81
2022-09-07T15:20:50.954Z,55.91
2022-09-07T15:21:50.923Z,55.11
2022-09-07T15:22:50.963Z,55.32
2022-09-07T15:23:50.968Z,55.02
2022-09-07T15:24:50.898Z,54.82
2022-09-07T15:25:51.979Z,54.92
2022-09-07T15:27:06.210Z,54.13
2022-09-07T15:27:52.899Z,54.92
2022-09-07T15:29:51.864Z,54.92
2022-09-07T15:31:40.559Z,55.66
2022-09-07T15:32:02.389Z,55.47
2022-09-07T15:32:51.898Z,56.81
2022-09-07T15:33:50.861Z,57.53
2022-09-07T15:34:50.811Z,57.96
2022-09-07T15:35:51.026Z,59.18
2022-09-07T15:36:50.813Z,58.48
2022-09-07T15:38:59.369Z,58.88
2022-09-07T15:39:00.511Z,59.78
2022-09-07T15:39:53.070Z,58.78
2022-09-07T15:41:18.200Z,60.25
2022-09-07T15:41:53.024Z,58.56
2022-09-07T15:43:19.575Z,60.08
2022-09-07T15:43:52.836Z,58.65
2022-09-07T15:44:50.750Z,58.16
2022-09-07T15:45:51.283Z,58.65
2022-09-07T15:47:52.315Z,59.18
2022-09-07T15:48:50.756Z,59.55
2022-09-07T15:49:51.787Z,59.88
2022-09-07T15:50:51.749Z,59.38
2022-09-07T15:52:06.467Z,59.98
2022-09-07T15:52:52.651Z,60.68
2022-09-07T15:54:50.624Z,61.07
2022-09-07T15:55:50.741Z,62.26
2022-09-07T15:57:59.356Z,60.60
2022-09-07T15:58:50.596Z,60.63
2022-09-07T15:59:50.571Z,61.13
2022-09-07T16:01:51.259Z,60.53
2022-09-07T16:01:52.224Z,61.06
2022-09-07T16:03:08.172Z,61.13
2022-09-07T16:03:52.679Z,60.56
2022-09-07T16:04:50.660Z,60.66
2022-09-07T16:05:53.106Z,63.05
2022-09-07T16:06:50.456Z,62.52
2022-09-07T16:08:51.746Z,61.99
2022-09-07T16:09:52.471Z,62.49
2022-09-07T16:10:54.104Z,62.37
2022-09-07T16:11:51.705Z,61.50
2022-09-07T16:13:10.879Z,63.19
2022-09-07T16:13:53.168Z,65.05
2022-09-07T16:14:56.443Z,64.69
2022-09-07T16:15:51.372Z,64.78
2022-09-07T16:17:53.943Z,65.91
2022-09-07T16:18:50.360Z,66.38
2022-09-07T16:19:50.333Z,66.47
2022-09-07T16:20:52.761Z,65.48
2022-09-07T16:21:50.302Z,66.67
2022-09-07T16:23:50.246Z,64.48
2022-09-07T16:24:50.305Z,66.57
2022-09-07T16:25:50.227Z,62.79
2022-09-07T16:26:50.344Z,63.22
2022-09-07T16:27:50.220Z,63.02
2022-09-07T16:28:50.220Z,61.93
2022-09-07T16:29:50.242Z,63.12
2022-09-07T16:30:50.182Z,63.05
2022-09-07T16:32:50.253Z,65.61
2022-09-07T16:33:50.147Z,64.12
2022-09-07T16:34:50.119Z,62.85
2022-09-07T16:35:50.147Z,62.85
2022-09-07T16:36:50.108Z,62.92
2022-09-07T16:38:51.143Z,62.85
2022-09-07T16:39:50.145Z,62.82
2022-09-07T16:40:50.196Z,63.52
2022-09-07T16:41:50.047Z,62.92
2022-09-07T16:42:50.045Z,63.52
2022-09-07T16:43:50.027Z,63.55
2022-09-07T16:44:50.316Z,63.05
2022-09-07T16:46:05.319Z,62.98
2022-09-07T16:46:51.997Z,63.88
2022-09-07T16:47:49.991Z,62.98
2022-09-07T16:48:50.011Z,63.08
2022-09-07T16:49:50.663Z,63.98
2022-09-07T16:50:50.003Z,63.58
2022-09-07T16:51:50.264Z,63.08
2022-09-07T16:52:49.916Z,63.21
2022-09-07T16:53:49.915Z,63.21
2022-09-07T16:54:51.236Z,63.61
2022-09-07T16:55:49.911Z,64.71
2022-09-07T16:56:49.887Z,65.11
2022-09-07T16:58:50.341Z,66.93
2022-09-07T16:59:49.900Z,67.03
2022-09-07T17:00:49.834Z,67.26
2022-09-07T17:01:49.840Z,67.76
2022-09-07T17:02:49.804Z,68.16
2022-09-07T17:03:49.879Z,67.96
2022-09-07T17:04:49.795Z,68.99
2022-09-07T17:05:49.767Z,68.73
2022-09-07T17:06:49.775Z,69.13
2022-09-07T17:07:49.779Z,68.73
2022-09-07T17:08:49.745Z,68.33
2022-09-07T17:09:49.769Z,69.13
2022-09-07T17:10:49.753Z,69.32
2022-09-07T17:11:49.752Z,68.13
2022-09-07T17:12:49.687Z,68.33
2022-09-07T17:13:49.701Z,67.53
2022-09-07T17:14:49.687Z,67.13
2022-09-07T17:15:49.664Z,67.13
2022-09-07T17:16:49.764Z,67.43
2022-09-07T17:17:49.632Z,67.63
2022-09-07T17:19:49.686Z,67.23
2022-09-07T17:20:49.603Z,67.16
2022-09-07T17:23:45.648Z,67.96
2022-09-07T17:24:37.074Z,67.66
2022-09-07T17:25:36.983Z,67.56
2022-09-07T17:26:37.116Z,67.46
2022-09-07T17:27:36.927Z,67.36
2022-09-07T17:28:37.112Z,66.89
2022-09-07T17:29:37.408Z,66.59
2022-09-07T17:30:39.374Z,66.69
2022-09-07T17:32:36.965Z,64.49
2022-09-07T17:33:36.832Z,63.29
2022-09-07T17:34:36.819Z,63.69
2022-09-07T17:35:37.507Z,63.79
2022-09-07T17:36:36.784Z,63.49
2022-09-07T17:37:36.794Z,63.59
2022-09-07T17:39:36.777Z,63.09
2022-09-07T17:40:36.738Z,63.39
2022-09-07T17:41:36.727Z,62.19
2022-09-07T17:43:45.224Z,62.59
2022-09-07T17:44:38.443Z,62.39
2022-09-07T17:45:36.812Z,62.39
2022-09-07T17:46:36.665Z,62.70
2022-09-07T17:47:36.673Z,62.59
2022-09-07T17:48:36.628Z,62.39
2022-09-07T17:49:36.624Z,63.32
2022-09-07T17:50:36.601Z,63.72
2022-09-07T17:51:36.606Z,64.83
2022-09-07T17:52:40.253Z,65.02
2022-09-07T17:53:36.573Z,65.33
2022-09-07T17:54:37.156Z,66.52
2022-09-07T17:55:36.545Z,66.13
2022-09-07T17:56:36.523Z,66.82
2022-09-07T17:57:36.540Z,66.93
2022-09-07T17:58:36.508Z,66.36
2022-09-07T18:00:36.613Z,67.25
2022-09-07T18:01:36.531Z,67.99
2022-09-07T18:02:37.493Z,67.89
2022-09-07T18:03:36.698Z,67.69
2022-09-07T18:04:36.433Z,68.39
2022-09-07T18:05:36.418Z,68.39
2022-09-07T18:06:36.397Z,68.49
2022-09-07T18:07:36.408Z,68.79
2022-09-07T18:08:37.491Z,68.89
2022-09-07T18:09:37.496Z,69.23
2022-09-07T18:11:46.192Z,69.62
2022-09-07T18:12:39.497Z,69.82
2022-09-07T18:13:37.482Z,70.16
2022-09-07T18:14:37.429Z,70.32
2022-09-07T18:15:37.432Z,69.96
2022-09-07T18:16:37.479Z,70.36
2022-09-07T18:17:37.431Z,69.93
2022-09-07T18:18:37.387Z,69.96
2022-09-07T18:19:38.430Z,70.66
2022-09-07T18:20:37.431Z,70.46
2022-09-07T18:21:37.358Z,70.43
2022-09-07T18:22:37.428Z,69.76
2022-09-07T18:23:37.353Z,69.76
2022-09-07T18:24:37.327Z,69.56
2022-09-07T18:25:37.307Z,69.35
2022-09-07T18:26:37.300Z,69.76
2022-09-07T18:27:37.281Z,69.16
2022-09-07T18:29:38.271Z,69.76